sensor_id;sensor_type;location;lat;lon;timestamp;pressure;altitude;pressure_sealevel;temperature;humidity
27334;BME280;14817;57.104;-2.094;2023-02-11T00:00:20;101426.69;;;9.73;100.00
27334;BME280;14817;57.104;-2.094;2023-02-11T00:02:47;101435.34;;;9.65;100.00
27334;BME280;14817;57.104;-2.094;2023-02-11T00:05:14;101433.63;;;9.64;100.00
27334;BME280;14817;57.104;-2.094;2023-02-11T00:07:40;101426.50;;;9.65;100.00
27334;BME280;14817;57.104;-2.094;2023-02-11T00:10:07;101438.63;;;9.80;100.00
27334;BME280;14817;57.104;-2.094;2023-02-11T00:12:34;101442.75;;;9.84;100.00
27334;BME280;14817;57.104;-2.094;2023-02-11T00:15:01;101451.16;;;9.79;100.00
27334;BME280;14817;57.104;-2.094;2023-02-11T00:17:28;101452.94;;;9.79;100.00
27334;BME280;14817;57.104;-2.094;2023-02-11T00:19:55;101457.47;;;9.78;100.00
27334;BME280;14817;57.104;-2.094;2023-02-11T00:22:21;101453.22;;;9.76;100.00
27334;BME280;14817;57.104;-2.094;2023-02-11T00:24:48;101447.00;;;9.87;100.00
27334;BME280;14817;57.104;-2.094;2023-02-11T00:27:15;101451.84;;;9.93;100.00
27334;BME280;14817;57.104;-2.094;2023-02-11T00:29:41;101441.22;;;10.02;100.00
27334;BME280;14817;57.104;-2.094;2023-02-11T00:32:08;101449.22;;;10.14;100.00
27334;BME280;14817;57.104;-2.094;2023-02-11T00:34:34;101449.19;;;10.25;100.00
27334;BME280;14817;57.104;-2.094;2023-02-11T00:37:02;101444.78;;;10.24;100.00
27334;BME280;14817;57.104;-2.094;2023-02-11T00:39:28;101446.38;;;10.27;100.00
27334;BME280;14817;57.104;-2.094;2023-02-11T00:41:55;101448.19;;;10.26;100.00
27334;BME280;14817;57.104;-2.094;2023-02-11T00:44:22;101447.34;;;10.26;100.00
27334;BME280;14817;57.104;-2.094;2023-02-11T00:46:48;101452.34;;;10.30;100.00
27334;BME280;14817;57.104;-2.094;2023-02-11T00:49:16;101451.13;;;10.34;100.00
27334;BME280;14817;57.104;-2.094;2023-02-11T00:51:43;101459.38;;;10.42;100.00
27334;BME280;14817;57.104;-2.094;2023-02-11T00:54:10;101472.31;;;10.37;100.00
27334;BME280;14817;57.104;-2.094;2023-02-11T00:56:37;101481.44;;;10.23;100.00
27334;BME280;14817;57.104;-2.094;2023-02-11T00:59:04;101469.03;;;10.22;100.00
27334;BME280;14817;57.104;-2.094;2023-02-11T01:01:31;101473.00;;;10.28;100.00
27334;BME280;14817;57.104;-2.094;2023-02-11T01:03:57;101477.66;;;10.37;100.00
27334;BME280;14817;57.104;-2.094;2023-02-11T01:06:24;101474.25;;;10.24;100.00
27334;BME280;14817;57.104;-2.094;2023-02-11T01:08:51;101488.28;;;10.16;100.00
27334;BME280;14817;57.104;-2.094;2023-02-11T01:11:18;101474.38;;;10.22;100.00
27334;BME280;14817;57.104;-2.094;2023-02-11T01:13:46;101487.56;;;10.14;100.00
27334;BME280;14817;57.104;-2.094;2023-02-11T01:16:14;101480.63;;;10.12;100.00
27334;BME280;14817;57.104;-2.094;2023-02-11T01:18:41;101491.19;;;10.13;100.00
27334;BME280;14817;57.104;-2.094;2023-02-11T01:21:09;101497.06;;;10.07;100.00
27334;BME280;14817;57.104;-2.094;2023-02-11T01:23:36;101497.56;;;10.01;100.00
27334;BME280;14817;57.104;-2.094;2023-02-11T01:26:03;101503.41;;;9.95;100.00
27334;BME280;14817;57.104;-2.094;2023-02-11T01:28:30;101493.28;;;9.98;100.00
27334;BME280;14817;57.104;-2.094;2023-02-11T01:30:59;101504.09;;;10.08;100.00
27334;BME280;14817;57.104;-2.094;2023-02-11T01:33:26;101508.84;;;10.05;100.00
27334;BME280;14817;57.104;-2.094;2023-02-11T01:35:53;101509.19;;;10.11;100.00
27334;BME280;14817;57.104;-2.094;2023-02-11T01:38:21;101518.09;;;10.00;100.00
27334;BME280;14817;57.104;-2.094;2023-02-11T01:40:52;101515.31;;;10.02;100.00
27334;BME280;14817;57.104;-2.094;2023-02-11T01:48:32;101516.16;;;10.02;100.00
27334;BME280;14817;57.104;-2.094;2023-02-11T01:51:06;101524.56;;;9.98;100.00
27334;BME280;14817;57.104;-2.094;2023-02-11T01:53:34;101526.25;;;10.10;100.00
27334;BME280;14817;57.104;-2.094;2023-02-11T01:56:23;101526.63;;;10.06;100.00
27334;BME280;14817;57.104;-2.094;2023-02-11T01:59:14;101525.88;;;10.15;100.00
27334;BME280;14817;57.104;-2.094;2023-02-11T02:01:43;101520.91;;;9.99;100.00
27334;BME280;14817;57.104;-2.094;2023-02-11T02:04:11;101522.84;;;9.86;100.00
27334;BME280;14817;57.104;-2.094;2023-02-11T02:06:43;101533.72;;;9.84;100.00
27334;BME280;14817;57.104;-2.094;2023-02-11T02:09:16;101531.50;;;9.89;100.00
27334;BME280;14817;57.104;-2.094;2023-02-11T02:11:45;101530.31;;;9.82;100.00
27334;BME280;14817;57.104;-2.094;2023-02-11T02:14:12;101521.03;;;9.75;100.00
27334;BME280;14817;57.104;-2.094;2023-02-11T02:16:39;101525.66;;;9.73;100.00
27334;BME280;14817;57.104;-2.094;2023-02-11T02:35:09;101535.84;;;8.76;100.00
27334;BME280;14817;57.104;-2.094;2023-02-11T02:37:46;101536.22;;;8.83;100.00
27334;BME280;14817;57.104;-2.094;2023-02-11T02:40:16;101541.53;;;8.71;100.00
27334;BME280;14817;57.104;-2.094;2023-02-11T02:42:44;101531.81;;;8.70;100.00
27334;BME280;14817;57.104;-2.094;2023-02-11T02:45:12;101531.75;;;8.59;100.00
27334;BME280;14817;57.104;-2.094;2023-02-11T02:47:42;101536.59;;;8.54;100.00
27334;BME280;14817;57.104;-2.094;2023-02-11T02:50:09;101539.47;;;8.51;100.00
27334;BME280;14817;57.104;-2.094;2023-02-11T02:52:55;101537.78;;;8.50;100.00
27334;BME280;14817;57.104;-2.094;2023-02-11T03:08:42;101514.84;;;8.83;100.00
27334;BME280;14817;57.104;-2.094;2023-02-11T03:11:11;101520.22;;;8.94;100.00
27334;BME280;14817;57.104;-2.094;2023-02-11T03:13:40;101502.53;;;9.04;100.00
27334;BME280;14817;57.104;-2.094;2023-02-11T03:16:10;101509.22;;;9.10;100.00
27334;BME280;14817;57.104;-2.094;2023-02-11T03:18:40;101495.50;;;9.26;100.00
27334;BME280;14817;57.104;-2.094;2023-02-11T03:21:08;101500.38;;;9.32;100.00
27334;BME280;14817;57.104;-2.094;2023-02-11T03:23:36;101509.63;;;9.50;100.00
27334;BME280;14817;57.104;-2.094;2023-02-11T03:28:32;101507.31;;;9.68;100.00
27334;BME280;14817;57.104;-2.094;2023-02-11T03:31:05;101510.22;;;9.76;100.00
27334;BME280;14817;57.104;-2.094;2023-02-11T03:33:48;101508.91;;;9.82;100.00
27334;BME280;14817;57.104;-2.094;2023-02-11T03:36:19;101512.91;;;9.76;100.00
27334;BME280;14817;57.104;-2.094;2023-02-11T03:38:48;101513.25;;;9.83;100.00
27334;BME280;14817;57.104;-2.094;2023-02-11T03:41:18;101519.34;;;9.74;100.00
27334;BME280;14817;57.104;-2.094;2023-02-11T03:43:51;101529.81;;;9.66;100.00
27334;BME280;14817;57.104;-2.094;2023-02-11T03:46:19;101525.44;;;9.65;100.00
27334;BME280;14817;57.104;-2.094;2023-02-11T03:48:48;101527.13;;;9.66;100.00
27334;BME280;14817;57.104;-2.094;2023-02-11T03:51:16;101519.13;;;9.66;100.00
27334;BME280;14817;57.104;-2.094;2023-02-11T03:53:45;101519.00;;;9.67;100.00
27334;BME280;14817;57.104;-2.094;2023-02-11T03:56:14;101527.50;;;9.72;100.00
27334;BME280;14817;57.104;-2.094;2023-02-11T03:58:45;101528.84;;;9.78;100.00
27334;BME280;14817;57.104;-2.094;2023-02-11T04:01:11;101523.72;;;9.64;100.00
27334;BME280;14817;57.104;-2.094;2023-02-11T04:03:38;101527.16;;;9.54;100.00
27334;BME280;14817;57.104;-2.094;2023-02-11T04:06:05;101528.47;;;9.49;100.00
27334;BME280;14817;57.104;-2.094;2023-02-11T04:08:31;101531.50;;;9.44;100.00
27334;BME280;14817;57.104;-2.094;2023-02-11T04:10:58;101529.94;;;9.30;100.00
27334;BME280;14817;57.104;-2.094;2023-02-11T04:13:25;101533.28;;;9.21;100.00
27334;BME280;14817;57.104;-2.094;2023-02-11T04:15:51;101523.22;;;9.25;100.00
27334;BME280;14817;57.104;-2.094;2023-02-11T04:18:19;101521.03;;;9.30;100.00
27334;BME280;14817;57.104;-2.094;2023-02-11T04:20:45;101530.88;;;9.40;100.00
27334;BME280;14817;57.104;-2.094;2023-02-11T04:23:12;101523.47;;;9.55;100.00
27334;BME280;14817;57.104;-2.094;2023-02-11T04:25:39;101526.53;;;9.62;100.00
27334;BME280;14817;57.104;-2.094;2023-02-11T04:28:08;101529.31;;;9.72;100.00
27334;BME280;14817;57.104;-2.094;2023-02-11T04:30:34;101533.94;;;9.81;100.00
27334;BME280;14817;57.104;-2.094;2023-02-11T04:33:01;101537.59;;;9.80;100.00
27334;BME280;14817;57.104;-2.094;2023-02-11T04:35:28;101545.72;;;9.90;100.00
27334;BME280;14817;57.104;-2.094;2023-02-11T04:37:54;101540.63;;;9.98;100.00
27334;BME280;14817;57.104;-2.094;2023-02-11T04:40:21;101564.59;;;9.99;100.00
27334;BME280;14817;57.104;-2.094;2023-02-11T04:42:47;101572.13;;;10.06;100.00
27334;BME280;14817;57.104;-2.094;2023-02-11T04:45:14;101577.22;;;10.09;100.00
27334;BME280;14817;57.104;-2.094;2023-02-11T04:47:41;101586.00;;;9.99;100.00
27334;BME280;14817;57.104;-2.094;2023-02-11T04:50:07;101586.97;;;9.87;100.00
27334;BME280;14817;57.104;-2.094;2023-02-11T04:52:34;101593.53;;;9.83;100.00
27334;BME280;14817;57.104;-2.094;2023-02-11T04:55:00;101595.00;;;9.65;100.00
27334;BME280;14817;57.104;-2.094;2023-02-11T04:57:27;101605.81;;;9.63;100.00
27334;BME280;14817;57.104;-2.094;2023-02-11T04:59:54;101608.38;;;9.65;100.00
27334;BME280;14817;57.104;-2.094;2023-02-11T05:05:12;101619.59;;;9.34;100.00
27334;BME280;14817;57.104;-2.094;2023-02-11T05:07:38;101620.91;;;9.29;100.00
27334;BME280;14817;57.104;-2.094;2023-02-11T05:10:05;101643.97;;;9.18;100.00
27334;BME280;14817;57.104;-2.094;2023-02-11T05:12:32;101650.00;;;9.09;100.00
27334;BME280;14817;57.104;-2.094;2023-02-11T05:15:00;101652.59;;;8.98;100.00
27334;BME280;14817;57.104;-2.094;2023-02-11T05:17:27;101653.94;;;8.92;100.00
27334;BME280;14817;57.104;-2.094;2023-02-11T05:19:53;101653.19;;;8.90;100.00
27334;BME280;14817;57.104;-2.094;2023-02-11T05:22:20;101661.41;;;8.87;100.00
27334;BME280;14817;57.104;-2.094;2023-02-11T05:24:47;101663.53;;;8.95;100.00
27334;BME280;14817;57.104;-2.094;2023-02-11T05:27:14;101665.97;;;8.98;100.00
27334;BME280;14817;57.104;-2.094;2023-02-11T05:29:41;101662.91;;;8.91;100.00
27334;BME280;14817;57.104;-2.094;2023-02-11T05:32:07;101666.91;;;8.86;100.00
27334;BME280;14817;57.104;-2.094;2023-02-11T05:34:34;101664.00;;;8.89;100.00
27334;BME280;14817;57.104;-2.094;2023-02-11T05:37:01;101670.06;;;8.91;100.00
27334;BME280;14817;57.104;-2.094;2023-02-11T05:39:28;101672.78;;;9.02;100.00
27334;BME280;14817;57.104;-2.094;2023-02-11T05:41:54;101671.09;;;9.01;100.00
27334;BME280;14817;57.104;-2.094;2023-02-11T05:44:21;101675.25;;;9.05;100.00
27334;BME280;14817;57.104;-2.094;2023-02-11T05:46:47;101676.94;;;9.06;100.00
27334;BME280;14817;57.104;-2.094;2023-02-11T05:49:15;101694.41;;;8.99;100.00
27334;BME280;14817;57.104;-2.094;2023-02-11T05:51:42;101696.34;;;8.97;100.00
27334;BME280;14817;57.104;-2.094;2023-02-11T05:54:08;101705.00;;;9.01;100.00
27334;BME280;14817;57.104;-2.094;2023-02-11T05:56:36;101707.47;;;9.15;100.00
27334;BME280;14817;57.104;-2.094;2023-02-11T05:59:02;101713.91;;;9.12;100.00
27334;BME280;14817;57.104;-2.094;2023-02-11T06:01:29;101693.91;;;9.18;100.00
27334;BME280;14817;57.104;-2.094;2023-02-11T06:03:55;101700.28;;;9.28;100.00
27334;BME280;14817;57.104;-2.094;2023-02-11T06:06:23;101689.50;;;9.17;100.00
27334;BME280;14817;57.104;-2.094;2023-02-11T06:08:50;101704.19;;;9.11;100.00
27334;BME280;14817;57.104;-2.094;2023-02-11T06:11:17;101699.25;;;9.18;100.00
27334;BME280;14817;57.104;-2.094;2023-02-11T06:13:44;101695.78;;;9.05;100.00
27334;BME280;14817;57.104;-2.094;2023-02-11T06:16:10;101707.19;;;9.07;100.00
27334;BME280;14817;57.104;-2.094;2023-02-11T06:18:37;101718.91;;;8.93;100.00
27334;BME280;14817;57.104;-2.094;2023-02-11T06:21:07;101725.13;;;8.81;100.00
27334;BME280;14817;57.104;-2.094;2023-02-11T06:23:34;101722.78;;;8.76;100.00
27334;BME280;14817;57.104;-2.094;2023-02-11T06:26:02;101730.50;;;8.68;100.00
27334;BME280;14817;57.104;-2.094;2023-02-11T06:28:29;101736.28;;;8.62;100.00
27334;BME280;14817;57.104;-2.094;2023-02-11T06:30:57;101750.19;;;8.54;100.00
27334;BME280;14817;57.104;-2.094;2023-02-11T06:33:24;101762.38;;;8.45;100.00
27334;BME280;14817;57.104;-2.094;2023-02-11T06:35:50;101761.38;;;8.33;100.00
27334;BME280;14817;57.104;-2.094;2023-02-11T06:38:17;101760.84;;;8.28;100.00
27334;BME280;14817;57.104;-2.094;2023-02-11T06:40:47;101751.56;;;8.21;100.00
27334;BME280;14817;57.104;-2.094;2023-02-11T06:43:14;101754.22;;;8.21;100.00
27334;BME280;14817;57.104;-2.094;2023-02-11T06:45:41;101755.09;;;8.34;100.00
27334;BME280;14817;57.104;-2.094;2023-02-11T06:48:08;101761.06;;;8.38;100.00
27334;BME280;14817;57.104;-2.094;2023-02-11T06:50:34;101774.25;;;8.41;100.00
27334;BME280;14817;57.104;-2.094;2023-02-11T06:53:01;101783.47;;;8.35;100.00
27334;BME280;14817;57.104;-2.094;2023-02-11T06:55:28;101783.16;;;8.27;100.00
27334;BME280;14817;57.104;-2.094;2023-02-11T06:57:54;101789.88;;;8.20;100.00
27334;BME280;14817;57.104;-2.094;2023-02-11T07:00:21;101803.00;;;8.23;100.00
27334;BME280;14817;57.104;-2.094;2023-02-11T07:02:47;101811.34;;;8.18;100.00
27334;BME280;14817;57.104;-2.094;2023-02-11T07:05:14;101804.63;;;8.13;100.00
27334;BME280;14817;57.104;-2.094;2023-02-11T07:07:41;101811.22;;;8.07;100.00
27334;BME280;14817;57.104;-2.094;2023-02-11T07:10:07;101810.66;;;8.02;100.00
27334;BME280;14817;57.104;-2.094;2023-02-11T07:12:34;101808.47;;;8.09;100.00
27334;BME280;14817;57.104;-2.094;2023-02-11T07:15:01;101814.41;;;8.00;100.00
27334;BME280;14817;57.104;-2.094;2023-02-11T07:17:28;101809.97;;;8.13;100.00
27334;BME280;14817;57.104;-2.094;2023-02-11T07:19:54;101817.66;;;8.30;100.00
27334;BME280;14817;57.104;-2.094;2023-02-11T07:22:21;101817.31;;;8.22;100.00
27334;BME280;14817;57.104;-2.094;2023-02-11T07:24:48;101820.84;;;8.35;100.00
27334;BME280;14817;57.104;-2.094;2023-02-11T07:27:14;101827.25;;;8.33;100.00
27334;BME280;14817;57.104;-2.094;2023-02-11T07:29:41;101837.50;;;8.26;100.00
27334;BME280;14817;57.104;-2.094;2023-02-11T07:32:08;101837.91;;;8.20;100.00
27334;BME280;14817;57.104;-2.094;2023-02-11T07:34:34;101838.25;;;8.15;100.00
27334;BME280;14817;57.104;-2.094;2023-02-11T07:37:01;101838.56;;;8.11;100.00
27334;BME280;14817;57.104;-2.094;2023-02-11T07:39:28;101838.75;;;8.08;100.00
27334;BME280;14817;57.104;-2.094;2023-02-11T07:41:55;101841.41;;;8.08;100.00
27334;BME280;14817;57.104;-2.094;2023-02-11T07:44:22;101841.06;;;8.00;100.00
27334;BME280;14817;57.104;-2.094;2023-02-11T07:46:49;101838.06;;;7.91;100.00
27334;BME280;14817;57.104;-2.094;2023-02-11T07:49:16;101840.41;;;7.83;100.00
27334;BME280;14817;57.104;-2.094;2023-02-11T07:51:42;101854.34;;;7.74;100.00
27334;BME280;14817;57.104;-2.094;2023-02-11T07:54:10;101855.69;;;7.67;100.00
27334;BME280;14817;57.104;-2.094;2023-02-11T07:56:36;101855.88;;;7.64;100.00
27334;BME280;14817;57.104;-2.094;2023-02-11T07:59:03;101845.66;;;7.57;100.00
27334;BME280;14817;57.104;-2.094;2023-02-11T08:01:30;101852.88;;;7.55;100.00
27334;BME280;14817;57.104;-2.094;2023-02-11T08:03:57;101849.25;;;7.56;100.00
27334;BME280;14817;57.104;-2.094;2023-02-11T08:06:25;101855.44;;;7.57;100.00
27334;BME280;14817;57.104;-2.094;2023-02-11T08:08:52;101855.75;;;7.52;100.00
27334;BME280;14817;57.104;-2.094;2023-02-11T08:11:22;101873.16;;;7.58;100.00
27334;BME280;14817;57.104;-2.094;2023-02-11T08:13:49;101871.34;;;7.59;100.00
27334;BME280;14817;57.104;-2.094;2023-02-11T08:16:20;101880.56;;;7.53;100.00
27334;BME280;14817;57.104;-2.094;2023-02-11T08:18:47;101878.03;;;7.51;100.00
27334;BME280;14817;57.104;-2.094;2023-02-11T08:21:14;101879.81;;;7.51;100.00
27334;BME280;14817;57.104;-2.094;2023-02-11T08:23:42;101884.31;;;7.50;100.00
27334;BME280;14817;57.104;-2.094;2023-02-11T08:26:12;101877.91;;;7.53;100.00
27334;BME280;14817;57.104;-2.094;2023-02-11T08:28:40;101884.31;;;7.50;100.00
27334;BME280;14817;57.104;-2.094;2023-02-11T08:31:11;101877.06;;;7.52;100.00
27334;BME280;14817;57.104;-2.094;2023-02-11T08:33:38;101882.53;;;7.64;100.00
27334;BME280;14817;57.104;-2.094;2023-02-11T08:36:07;101888.16;;;7.73;100.00
27334;BME280;14817;57.104;-2.094;2023-02-11T08:38:33;101895.31;;;7.73;100.00
27334;BME280;14817;57.104;-2.094;2023-02-11T08:41:00;101894.97;;;7.50;100.00
27334;BME280;14817;57.104;-2.094;2023-02-11T08:43:27;101892.13;;;7.53;100.00
27334;BME280;14817;57.104;-2.094;2023-02-11T08:45:53;101896.56;;;7.53;100.00
27334;BME280;14817;57.104;-2.094;2023-02-11T08:48:20;101903.63;;;7.54;100.00
27334;BME280;14817;57.104;-2.094;2023-02-11T08:50:47;101907.91;;;7.56;100.00
27334;BME280;14817;57.104;-2.094;2023-02-11T08:53:13;101915.81;;;7.58;100.00
27334;BME280;14817;57.104;-2.094;2023-02-11T08:55:46;101919.03;;;7.63;100.00
27334;BME280;14817;57.104;-2.094;2023-02-11T08:58:13;101923.56;;;7.75;100.00
27334;BME280;14817;57.104;-2.094;2023-02-11T09:00:43;101926.28;;;7.88;100.00
27334;BME280;14817;57.104;-2.094;2023-02-11T09:03:11;101924.94;;;7.95;100.00
27334;BME280;14817;57.104;-2.094;2023-02-11T09:05:41;101929.22;;;7.98;100.00
27334;BME280;14817;57.104;-2.094;2023-02-11T09:08:08;101935.19;;;8.02;100.00
27334;BME280;14817;57.104;-2.094;2023-02-11T09:10:35;101940.78;;;8.11;100.00
27334;BME280;14817;57.104;-2.094;2023-02-11T09:13:02;101933.44;;;8.15;100.00
27334;BME280;14817;57.104;-2.094;2023-02-11T09:15:29;101935.50;;;8.24;100.00
27334;BME280;14817;57.104;-2.094;2023-02-11T09:17:56;101941.28;;;8.31;100.00
27334;BME280;14817;57.104;-2.094;2023-02-11T09:20:23;101937.44;;;8.35;100.00
27334;BME280;14817;57.104;-2.094;2023-02-11T09:22:49;101943.03;;;8.45;100.00
27334;BME280;14817;57.104;-2.094;2023-02-11T09:25:16;101943.59;;;8.50;100.00
27334;BME280;14817;57.104;-2.094;2023-02-11T09:27:43;101942.97;;;8.59;100.00
27334;BME280;14817;57.104;-2.094;2023-02-11T09:30:09;101948.22;;;8.73;100.00
27334;BME280;14817;57.104;-2.094;2023-02-11T09:32:36;101945.47;;;8.88;100.00
27334;BME280;14817;57.104;-2.094;2023-02-11T09:35:03;101937.13;;;9.05;100.00
27334;BME280;14817;57.104;-2.094;2023-02-11T09:37:30;101940.31;;;9.23;100.00
27334;BME280;14817;57.104;-2.094;2023-02-11T09:39:57;101942.44;;;9.44;100.00
27334;BME280;14817;57.104;-2.094;2023-02-11T09:45:00;101950.50;;;9.92;100.00
27334;BME280;14817;57.104;-2.094;2023-02-11T09:47:29;101954.41;;;10.12;100.00
27334;BME280;14817;57.104;-2.094;2023-02-11T09:50:09;101954.09;;;10.52;100.00
27334;BME280;14817;57.104;-2.094;2023-02-11T09:55:14;101963.31;;;10.83;100.00
27334;BME280;14817;57.104;-2.094;2023-02-11T09:57:42;101954.84;;;11.12;100.00
27334;BME280;14817;57.104;-2.094;2023-02-11T10:11:11;101956.63;;;12.34;100.00
27334;BME280;14817;57.104;-2.094;2023-02-11T10:14:00;101953.88;;;12.45;100.00
27334;BME280;14817;57.104;-2.094;2023-02-11T10:24:13;101950.28;;;12.56;100.00
27334;BME280;14817;57.104;-2.094;2023-02-11T10:26:41;101957.84;;;13.04;100.00
27334;BME280;14817;57.104;-2.094;2023-02-11T10:31:54;101964.72;;;12.22;100.00
27334;BME280;14817;57.104;-2.094;2023-02-11T10:34:23;101971.75;;;12.35;100.00
27334;BME280;14817;57.104;-2.094;2023-02-11T10:36:50;101971.97;;;12.43;100.00
27334;BME280;14817;57.104;-2.094;2023-02-11T10:39:17;101974.78;;;12.41;100.00
27334;BME280;14817;57.104;-2.094;2023-02-11T10:44:22;101975.53;;;12.85;100.00
27334;BME280;14817;57.104;-2.094;2023-02-11T10:46:50;101987.53;;;13.23;100.00
27334;BME280;14817;57.104;-2.094;2023-02-11T10:49:32;101975.31;;;13.40;100.00
27334;BME280;14817;57.104;-2.094;2023-02-11T10:52:13;101982.38;;;13.20;100.00
27334;BME280;14817;57.104;-2.094;2023-02-11T10:54:39;101984.19;;;13.10;100.00
27334;BME280;14817;57.104;-2.094;2023-02-11T10:57:11;101975.06;;;13.01;100.00
27334;BME280;14817;57.104;-2.094;2023-02-11T10:59:42;101982.59;;;12.86;100.00
27334;BME280;14817;57.104;-2.094;2023-02-11T11:02:29;101989.63;;;12.57;100.00
27334;BME280;14817;57.104;-2.094;2023-02-11T11:05:00;101983.34;;;12.35;100.00
27334;BME280;14817;57.104;-2.094;2023-02-11T11:07:29;101984.91;;;12.17;100.00
27334;BME280;14817;57.104;-2.094;2023-02-11T11:09:59;101982.97;;;11.96;100.00
27334;BME280;14817;57.104;-2.094;2023-02-11T11:14:54;101980.53;;;12.04;100.00
27334;BME280;14817;57.104;-2.094;2023-02-11T11:17:21;101983.94;;;12.07;100.00
27334;BME280;14817;57.104;-2.094;2023-02-11T11:19:48;101984.47;;;12.33;100.00
27334;BME280;14817;57.104;-2.094;2023-02-11T11:22:21;101974.28;;;12.48;100.00
27334;BME280;14817;57.104;-2.094;2023-02-11T11:24:48;101976.66;;;12.83;100.00
27334;BME280;14817;57.104;-2.094;2023-02-11T11:27:23;101976.25;;;12.87;100.00
27334;BME280;14817;57.104;-2.094;2023-02-11T11:29:54;101973.09;;;13.03;100.00
27334;BME280;14817;57.104;-2.094;2023-02-11T11:32:21;101965.16;;;13.23;100.00
27334;BME280;14817;57.104;-2.094;2023-02-11T11:34:56;101969.63;;;13.13;100.00
27334;BME280;14817;57.104;-2.094;2023-02-11T11:37:26;101971.47;;;13.12;100.00
27334;BME280;14817;57.104;-2.094;2023-02-11T11:39:58;101977.72;;;13.22;100.00
27334;BME280;14817;57.104;-2.094;2023-02-11T11:45:42;101985.47;;;13.16;100.00
27334;BME280;14817;57.104;-2.094;2023-02-11T11:47:57;101985.41;;;12.43;100.00
27334;BME280;14817;57.104;-2.094;2023-02-11T11:50:26;101979.72;;;12.57;100.00
27334;BME280;14817;57.104;-2.094;2023-02-11T11:52:55;101979.41;;;12.07;100.00
27334;BME280;14817;57.104;-2.094;2023-02-11T11:55:40;101979.97;;;12.22;100.00
27334;BME280;14817;57.104;-2.094;2023-02-11T11:58:18;101971.94;;;12.22;100.00
27334;BME280;14817;57.104;-2.094;2023-02-11T12:01:00;101965.41;;;12.03;100.00
27334;BME280;14817;57.104;-2.094;2023-02-11T12:06:10;101973.34;;;11.94;100.00
27334;BME280;14817;57.104;-2.094;2023-02-11T12:16:52;101957.00;;;11.74;100.00
27334;BME280;14817;57.104;-2.094;2023-02-11T12:27:35;101932.47;;;11.79;100.00
27334;BME280;14817;57.104;-2.094;2023-02-11T12:45:48;101917.28;;;11.57;100.00
27334;BME280;14817;57.104;-2.094;2023-02-11T12:51:04;101921.50;;;11.71;100.00
27334;BME280;14817;57.104;-2.094;2023-02-11T12:56:12;101916.16;;;11.71;100.00
27334;BME280;14817;57.104;-2.094;2023-02-11T12:58:41;101923.97;;;11.74;100.00
27334;BME280;14817;57.104;-2.094;2023-02-11T13:01:31;101918.59;;;11.62;100.00
27334;BME280;14817;57.104;-2.094;2023-02-11T13:04:05;101906.06;;;11.52;100.00
27334;BME280;14817;57.104;-2.094;2023-02-11T13:06:39;101913.88;;;11.43;100.00
27334;BME280;14817;57.104;-2.094;2023-02-11T13:09:17;101918.63;;;11.51;100.00
27334;BME280;14817;57.104;-2.094;2023-02-11T13:11:50;101922.66;;;11.57;100.00
27334;BME280;14817;57.104;-2.094;2023-02-11T13:14:23;101917.06;;;11.49;100.00
27334;BME280;14817;57.104;-2.094;2023-02-11T13:16:52;101915.09;;;11.51;100.00
27334;BME280;14817;57.104;-2.094;2023-02-11T13:21:53;101909.75;;;11.39;100.00
27334;BME280;14817;57.104;-2.094;2023-02-11T13:24:33;101913.16;;;11.41;100.00
27334;BME280;14817;57.104;-2.094;2023-02-11T13:32:18;101918.75;;;11.50;100.00
27334;BME280;14817;57.104;-2.094;2023-02-11T13:37:19;101904.59;;;11.59;100.00
27334;BME280;14817;57.104;-2.094;2023-02-11T13:42:33;101911.28;;;11.76;100.00
27334;BME280;14817;57.104;-2.094;2023-02-11T13:47:57;101920.91;;;11.78;100.00
27334;BME280;14817;57.104;-2.094;2023-02-11T13:50:24;101920.88;;;11.90;100.00
27334;BME280;14817;57.104;-2.094;2023-02-11T13:52:56;101923.19;;;11.83;100.00
27334;BME280;14817;57.104;-2.094;2023-02-11T13:55:24;101914.16;;;11.84;100.00
27334;BME280;14817;57.104;-2.094;2023-02-11T13:58:14;101918.81;;;11.93;100.00
27334;BME280;14817;57.104;-2.094;2023-02-11T14:14:23;101923.69;;;11.77;100.00
27334;BME280;14817;57.104;-2.094;2023-02-11T14:27:09;101918.13;;;11.57;100.00
27334;BME280;14817;57.104;-2.094;2023-02-11T14:29:44;101917.03;;;11.60;100.00
27334;BME280;14817;57.104;-2.094;2023-02-11T14:40:48;101941.78;;;11.41;100.00
27334;BME280;14817;57.104;-2.094;2023-02-11T14:43:18;101936.44;;;11.41;100.00
27334;BME280;14817;57.104;-2.094;2023-02-11T14:45:48;101946.94;;;11.44;100.00
27334;BME280;14817;57.104;-2.094;2023-02-11T14:48:16;101947.28;;;11.51;100.00
27334;BME280;14817;57.104;-2.094;2023-02-11T14:50:45;101943.50;;;11.53;100.00
27334;BME280;14817;57.104;-2.094;2023-02-11T14:53:14;101947.53;;;11.48;100.00
27334;BME280;14817;57.104;-2.094;2023-02-11T14:55:43;101953.25;;;11.43;100.00
27334;BME280;14817;57.104;-2.094;2023-02-11T15:00:45;101950.59;;;11.32;100.00
27334;BME280;14817;57.104;-2.094;2023-02-11T15:05:55;101959.13;;;11.14;100.00
27334;BME280;14817;57.104;-2.094;2023-02-11T15:08:22;101956.28;;;11.16;100.00
27334;BME280;14817;57.104;-2.094;2023-02-11T15:10:49;101963.63;;;11.14;100.00
27334;BME280;14817;57.104;-2.094;2023-02-11T15:13:19;101958.28;;;11.14;100.00
27334;BME280;14817;57.104;-2.094;2023-02-11T15:15:48;101967.38;;;11.11;100.00
27334;BME280;14817;57.104;-2.094;2023-02-11T15:18:18;101957.28;;;11.03;100.00
27334;BME280;14817;57.104;-2.094;2023-02-11T15:20:48;101960.53;;;10.96;100.00
27334;BME280;14817;57.104;-2.094;2023-02-11T15:23:18;101962.84;;;10.89;100.00
27334;BME280;14817;57.104;-2.094;2023-02-11T15:25:47;101972.84;;;10.87;100.00
27334;BME280;14817;57.104;-2.094;2023-02-11T15:28:22;101971.38;;;10.83;100.00
27334;BME280;14817;57.104;-2.094;2023-02-11T15:31:00;101972.22;;;10.83;100.00